Time;durP1;ratioP1;P1;durP2;ratioP2;P2;SDS_P1;SDS_P2;PMS_P1;PMS_P2;Temp;Humidity;BMP_temperature;BMP_pressure;BME280_temperature;BME280_humidity;BME280_pressure;Samples;Min_cycle;Max_cycle;Signal;HPM_P1;HPM_P2
2022/05/27 00:03:49;;;;;;;1.77;1.50;;;15.70;1.00;;;;;;8325541;28;20197;-78
2022/05/27 00:07:50;;;;;;;5.13;1.73;;;15.60;1.00;;;;;;8330662;28;20267;-78
2022/05/27 00:11:51;;;;;;;2.23;1.43;;;15.60;1.00;;;;;;8330481;28;20276;-78
2022/05/27 00:15:52;;;;;;;2.13;1.53;;;15.60;1.00;;;;;;8339905;28;20174;-78
2022/05/27 00:19:53;;;;;;;2.47;1.57;;;15.60;1.00;;;;;;8318295;28;20195;-79
2022/05/27 00:23:54;;;;;;;3.37;1.40;;;15.70;1.00;;;;;;8337969;28;20217;-78
2022/05/27 00:27:56;;;;;;;3.03;1.87;;;15.70;1.00;;;;;;8326260;28;20205;-77
2022/05/27 00:31:56;;;;;;;2.20;1.40;;;15.70;1.00;;;;;;8323537;28;20244;-78
2022/05/27 00:35:57;;;;;;;2.07;1.40;;;15.80;1.00;;;;;;8348545;28;20212;-78
2022/05/27 00:39:58;;;;;;;2.97;1.27;;;15.80;1.00;;;;;;8328336;28;20205;-79
2022/05/27 00:43:59;;;;;;;1.70;1.23;;;15.80;1.00;;;;;;8331013;28;20316;-78
2022/05/27 00:48:01;;;;;;;2.07;1.50;;;15.80;1.00;;;;;;8342127;28;20206;-79
2022/05/27 00:52:07;;;;;;;1.87;1.40;;;15.90;1.00;;;;;;8329462;28;20182;-79
2022/05/27 00:56:11;;;;;;;2.40;1.43;;;15.90;1.00;;;;;;8332971;28;20185;-79
2022/05/27 01:00:19;;;;;;;3.90;1.37;;;15.90;1.00;;;;;;8337149;28;20193;-79
2022/05/27 01:04:21;;;;;;;2.33;1.20;;;15.90;1.00;;;;;;8341607;28;20186;-79
2022/05/27 01:08:26;;;;;;;1.50;0.93;;;15.90;1.00;;;;;;8352850;28;20181;-78
2022/05/27 01:12:49;;;;;;;2.03;1.07;;;16.00;1.00;;;;;;8331202;28;20190;-78
2022/05/27 01:16:55;;;;;;;1.43;1.00;;;16.00;1.00;;;;;;8337621;28;20194;-79
2022/05/27 01:21:11;;;;;;;3.00;1.30;;;16.00;1.00;;;;;;8324229;28;20181;-78
2022/05/27 01:25:53;;;;;;;2.13;1.10;;;16.00;99.90;;;;;;8336124;28;20313;-79
2022/05/27 01:30:17;;;;;;;2.43;1.10;;;16.10;99.90;;;;;;8350586;28;20199;-79
2022/05/27 01:34:39;;;;;;;2.63;1.07;;;16.10;99.90;;;;;;8321970;28;20185;-78
2022/05/27 01:38:59;;;;;;;2.23;1.23;;;16.10;99.90;;;;;;8327336;28;20292;-79
2022/05/27 01:43:15;;;;;;;2.10;1.23;;;16.20;99.90;;;;;;8335760;28;20178;-79
2022/05/27 01:47:27;;;;;;;1.20;0.97;;;16.20;99.90;;;;;;8327858;28;20214;-79
2022/05/27 01:51:43;;;;;;;2.23;0.90;;;16.20;99.90;;;;;;8349561;28;20187;-79
2022/05/27 01:56:03;;;;;;;2.43;1.10;;;16.20;99.90;;;;;;8325265;28;20190;-78
2022/05/27 02:00:10;;;;;;;1.97;1.00;;;16.30;99.90;;;;;;8327751;28;20210;-78
2022/05/27 02:04:24;;;;;;;2.53;1.50;;;16.30;99.90;;;;;;8345186;28;20185;-78
2022/05/27 02:08:32;;;;;;;2.17;1.30;;;16.30;99.90;;;;;;8336240;28;20183;-79
2022/05/27 02:12:39;;;;;;;4.30;1.00;;;16.30;99.90;;;;;;8312221;28;20182;-78
2022/05/27 02:16:55;;;;;;;4.43;1.07;;;16.30;99.90;;;;;;8314275;28;20194;-79
2022/05/27 02:21:08;;;;;;;5.33;1.20;;;16.30;99.90;;;;;;8329921;28;20187;-78
2022/05/27 02:25:18;;;;;;;3.73;0.93;;;16.30;99.90;;;;;;8325474;28;20206;-78
2022/05/27 02:29:28;;;;;;;2.10;1.00;;;16.30;99.90;;;;;;8325083;28;20247;-78
2022/05/27 02:37:59;;;;;;;3.63;0.93;;;16.40;99.90;;;;;;8344514;28;20233;-78
2022/05/27 02:42:16;;;;;;;1.47;0.90;;;16.40;99.90;;;;;;8335840;28;20209;-78
2022/05/27 02:46:47;;;;;;;2.37;1.10;;;16.40;99.90;;;;;;8328983;28;20202;-79
2022/05/27 02:51:27;;;;;;;2.07;0.90;;;16.40;99.90;;;;;;8328185;28;20191;-79
2022/05/27 02:56:05;;;;;;;1.63;1.00;;;16.40;99.90;;;;;;8326773;28;20249;-79
2022/05/27 03:00:13;;;;;;;2.77;1.30;;;16.40;99.90;;;;;;8343385;28;20181;-77
2022/05/27 03:04:15;;;;;;;2.57;1.23;;;16.30;99.90;;;;;;8328806;28;20207;-79
2022/05/27 03:08:29;;;;;;;4.13;1.27;;;16.30;99.90;;;;;;8324006;28;20217;-76
2022/05/27 03:12:58;;;;;;;2.53;1.20;;;16.40;99.90;;;;;;8347279;28;20194;-75
2022/05/27 03:17:06;;;;;;;1.63;1.00;;;16.40;99.90;;;;;;8328114;28;20174;-79
2022/05/27 03:21:46;;;;;;;2.00;1.10;;;16.40;99.90;;;;;;8329745;28;20425;-75
2022/05/27 03:25:52;;;;;;;3.33;1.10;;;16.50;99.90;;;;;;8337898;28;20221;-79
2022/05/27 03:30:04;;;;;;;3.30;0.90;;;16.50;99.90;;;;;;8343484;28;20198;-76
2022/05/27 03:34:16;;;;;;;2.47;1.27;;;16.50;99.90;;;;;;8334961;28;20174;-77
2022/05/27 03:38:25;;;;;;;3.30;1.20;;;16.50;99.90;;;;;;8338192;28;20397;-78
2022/05/27 03:42:28;;;;;;;3.50;0.90;;;16.40;99.90;;;;;;8344062;28;20189;-78
2022/05/27 03:46:34;;;;;;;2.90;1.03;;;16.40;99.90;;;;;;8338847;28;21293;-79
2022/05/27 03:50:35;;;;;;;1.40;0.80;;;16.40;99.90;;;;;;8322876;28;20189;-75
2022/05/27 03:54:36;;;;;;;1.77;0.90;;;16.40;99.90;;;;;;8335124;28;20178;-79
2022/05/27 03:58:37;;;;;;;4.10;1.10;;;16.50;1.00;;;;;;8332175;28;20200;-75
2022/05/27 04:02:38;;;;;;;1.87;1.10;;;16.60;99.90;;;;;;8323457;28;20201;-80
2022/05/27 04:06:38;;;;;;;2.83;0.80;;;16.60;99.90;;;;;;8338677;28;20247;-76
2022/05/27 04:10:39;;;;;;;6.00;1.20;;;16.60;99.90;;;;;;8319927;28;20210;-75
2022/05/27 04:14:40;;;;;;;3.03;1.00;;;16.70;1.00;;;;;;8321544;28;20182;-80
2022/05/27 04:18:41;;;;;;;2.13;0.90;;;16.60;1.00;;;;;;8327101;28;20193;-80
2022/05/27 04:22:43;;;;;;;2.17;1.30;;;16.60;1.00;;;;;;8341773;28;20244;-79
2022/05/27 04:26:43;;;;;;;1.70;0.97;;;16.50;1.00;;;;;;8342889;28;20210;-76
2022/05/27 04:30:45;;;;;;;4.37;1.33;;;16.50;1.00;;;;;;8341335;28;20241;-78
2022/05/27 04:34:46;;;;;;;2.70;1.30;;;16.60;1.00;;;;;;8317718;28;20755;-78
2022/05/27 04:38:47;;;;;;;2.50;1.20;;;16.50;1.00;;;;;;8325289;28;20230;-76
2022/05/27 04:42:50;;;;;;;2.43;1.03;;;16.40;91.60;;;;;;8323230;28;20189;-80
2022/05/27 04:46:50;;;;;;;2.50;1.40;;;16.20;99.90;;;;;;8340668;28;20243;-78
2022/05/27 04:50:51;;;;;;;2.60;0.93;;;16.00;99.90;;;;;;8342407;28;20182;-76
2022/05/27 04:54:53;;;;;;;3.87;1.43;;;15.90;1.00;;;;;;8330394;28;20211;-76
2022/05/27 04:58:54;;;;;;;4.47;2.00;;;15.80;1.00;;;;;;8324476;28;20186;-75
2022/05/27 05:02:56;;;;;;;2.03;1.20;;;15.70;99.90;;;;;;8340645;28;20185;-80
2022/05/27 05:07:02;;;;;;;2.27;1.60;;;15.50;99.90;;;;;;8329268;28;20240;-77
2022/05/27 05:11:05;;;;;;;2.30;1.33;;;15.40;7.20;;;;;;8318625;28;20178;-75
2022/05/27 05:15:06;;;;;;;1.87;1.57;;;15.30;99.90;;;;;;8328671;28;20186;-75
2022/05/27 05:19:07;;;;;;;3.93;2.13;;;15.20;1.00;;;;;;8328497;28;20199;-76
2022/05/27 05:23:08;;;;;;;6.07;2.20;;;15.00;1.00;;;;;;8338139;28;20189;-80
2022/05/27 05:27:09;;;;;;;4.80;3.40;;;14.70;95.70;;;;;;8324750;28;20233;-75
2022/05/27 05:31:13;;;;;;;4.87;3.70;;;14.40;99.90;;;;;;8326281;28;20260;-78
2022/05/27 05:35:14;;;;;;;9.07;4.10;;;14.20;99.90;;;;;;8331054;28;20261;-75
2022/05/27 05:39:15;;;;;;;10.03;5.20;;;14.00;99.90;;;;;;8332974;28;20249;-81
2022/05/27 05:43:16;;;;;;;5.03;4.60;;;14.00;99.90;;;;;;8331281;28;20194;-77
2022/05/27 05:47:17;;;;;;;5.80;5.20;;;14.00;99.90;;;;;;8325065;28;20216;-78
2022/05/27 05:51:18;;;;;;;6.13;5.27;;;14.00;99.90;;;;;;8328895;28;20245;-76
2022/05/27 05:55:20;;;;;;;8.70;5.93;;;14.00;99.90;;;;;;8328729;28;20435;-77
2022/05/27 05:59:22;;;;;;;7.40;6.30;;;14.00;99.90;;;;;;8343162;28;20178;-80
2022/05/27 06:03:23;;;;;;;7.87;6.00;;;14.00;99.90;;;;;;8322910;28;20179;-81
2022/05/27 06:07:24;;;;;;;8.70;5.57;;;14.00;99.90;;;;;;8327691;28;20210;-81
2022/05/27 06:11:25;;;;;;;6.73;4.73;;;14.00;99.90;;;;;;8332247;28;20174;-78
2022/05/27 06:15:26;;;;;;;7.20;4.20;;;14.00;99.90;;;;;;8319339;28;20391;-77
2022/05/27 06:19:27;;;;;;;4.63;3.70;;;14.00;99.90;;;;;;8324890;28;20186;-76
2022/05/27 06:23:28;;;;;;;3.43;3.07;;;14.00;99.90;;;;;;8345039;28;20194;-82
2022/05/27 06:27:29;;;;;;;4.13;2.87;;;14.00;99.90;;;;;;8341132;28;20317;-76
2022/05/27 06:35:49;;;;;;;2.97;2.30;;;13.90;99.90;;;;;;8341910;28;20200;-78
2022/05/27 06:39:51;;;;;;;2.20;2.00;;;13.90;99.90;;;;;;8339441;28;20206;-81
2022/05/27 06:43:52;;;;;;;3.03;2.23;;;13.90;99.90;;;;;;8328503;28;20186;-80
2022/05/27 06:47:52;;;;;;;3.03;2.07;;;14.00;99.90;;;;;;8324098;28;20274;-77
2022/05/27 06:51:53;;;;;;;2.60;2.40;;;14.10;99.90;;;;;;8328313;28;20186;-81
2022/05/27 06:55:54;;;;;;;3.50;2.03;;;14.20;99.90;;;;;;8323010;28;20264;-76
2022/05/27 06:59:55;;;;;;;3.93;2.10;;;14.20;99.90;;;;;;8326788;28;20178;-78
2022/05/27 07:03:56;;;;;;;3.40;2.20;;;14.10;99.90;;;;;;8325744;28;20216;-78
2022/05/27 07:07:58;;;;;;;1.90;1.70;;;14.20;99.90;;;;;;8324457;28;20210;-76
2022/05/27 07:11:59;;;;;;;2.03;1.80;;;14.10;99.90;;;;;;8319939;28;20197;-81
2022/05/27 07:15:59;;;;;;;2.70;2.27;;;14.00;99.90;;;;;;8340394;28;20213;-78
2022/05/27 07:20:02;;;;;;;3.00;2.60;;;14.20;99.90;;;;;;8331680;28;20190;-78
2022/05/27 07:24:03;;;;;;;3.10;2.10;;;14.20;99.90;;;;;;8323329;28;20236;-79
2022/05/27 07:28:08;;;;;;;2.20;2.00;;;14.20;99.90;;;;;;8325394;28;20218;-79
2022/05/27 07:32:09;;;;;;;2.33;2.13;;;14.20;99.90;;;;;;8340986;28;20284;-76
2022/05/27 07:36:11;;;;;;;4.20;2.20;;;14.10;99.90;;;;;;8322088;28;20186;-78
2022/05/27 07:40:12;;;;;;;2.13;1.70;;;13.90;99.90;;;;;;8328019;28;20210;-76
2022/05/27 07:44:13;;;;;;;2.07;1.60;;;13.70;99.90;;;;;;8330409;28;20278;-76
2022/05/27 07:48:14;;;;;;;2.83;1.83;;;13.60;99.90;;;;;;8324940;28;20212;-78
2022/05/27 07:52:15;;;;;;;2.20;2.00;;;13.50;99.90;;;;;;8324049;28;20568;-82
2022/05/27 07:56:16;;;;;;;3.13;2.20;;;13.40;99.90;;;;;;8322228;28;20190;-75
2022/05/27 08:00:27;;;;;;;3.43;2.03;;;13.40;99.90;;;;;;8321887;28;20249;-78
2022/05/27 08:04:28;;;;;;;8.73;2.00;;;13.30;99.90;;;;;;8349283;28;20189;-79
2022/05/27 08:08:29;;;;;;;3.67;2.37;;;13.10;99.90;;;;;;8324936;28;20196;-78
2022/05/27 08:12:30;;;;;;;4.93;2.30;;;13.10;99.90;;;;;;8330731;28;20181;-77
2022/05/27 08:16:33;;;;;;;1.83;1.57;;;13.10;99.90;;;;;;8336655;28;20274;-77
2022/05/27 08:20:36;;;;;;;3.30;1.80;;;12.90;99.90;;;;;;8322948;28;20192;-80
2022/05/27 08:24:37;;;;;;;4.20;1.80;;;12.90;99.90;;;;;;8329158;28;20196;-78
2022/05/27 08:28:38;;;;;;;3.70;2.10;;;12.80;99.90;;;;;;8332631;28;20280;-75
2022/05/27 08:32:39;;;;;;;3.63;1.60;;;12.60;99.90;;;;;;8323856;28;20284;-76
2022/05/27 08:41:30;;;;;;;2.67;1.60;;;12.20;99.90;;;;;;8344724;28;20210;-78
2022/05/27 08:46:08;;;;;;;3.80;2.30;;;12.10;99.90;;;;;;8322550;28;20210;-77
2022/05/27 08:50:21;;;;;;;4.10;1.67;;;12.10;99.90;;;;;;8336021;28;20207;-81
2022/05/27 08:54:46;;;;;;;3.77;1.97;;;12.10;99.90;;;;;;8321329;28;20189;-82
2022/05/27 08:59:31;;;;;;;3.33;2.00;;;12.20;99.90;;;;;;8343198;28;20376;-80
2022/05/27 09:03:43;;;;;;;2.87;2.43;;;12.40;99.90;;;;;;8339821;28;20212;-77
2022/05/27 09:08:12;;;;;;;3.10;2.00;;;12.40;99.90;;;;;;8333164;28;20381;-82
2022/05/27 09:12:13;;;;;;;1.70;1.60;;;12.50;99.90;;;;;;8328772;28;20243;-76
2022/05/27 09:16:39;;;;;;;2.50;1.90;;;12.50;99.90;;;;;;8339135;28;20235;-77
2022/05/27 09:21:12;;;;;;;2.90;2.27;;;12.60;99.90;;;;;;8327146;28;20214;-76
2022/05/27 09:25:33;;;;;;;1.73;1.60;;;12.60;99.90;;;;;;8345791;28;20329;-77
2022/05/27 09:29:46;;;;;;;1.40;1.30;;;12.70;99.90;;;;;;8346691;28;20208;-79
2022/05/27 09:33:47;;;;;;;2.83;1.50;;;12.70;99.90;;;;;;8331619;28;20194;-77
2022/05/27 09:37:52;;;;;;;2.40;1.33;;;12.90;99.90;;;;;;8328947;28;20289;-76
2022/05/27 09:42:28;;;;;;;1.87;1.30;;;13.20;99.90;;;;;;8332961;28;20213;-79
2022/05/27 09:46:31;;;;;;;2.17;1.30;;;13.50;99.90;;;;;;8310691;28;20214;-79
2022/05/27 09:50:40;;;;;;;2.00;1.17;;;13.60;99.90;;;;;;8346306;28;20245;-76
2022/05/27 09:54:46;;;;;;;2.13;1.53;;;13.60;1.00;;;;;;8326407;28;20196;-79
2022/05/27 09:58:47;;;;;;;2.97;1.40;;;13.60;1.00;;;;;;8332238;28;20204;-78
2022/05/27 10:02:48;;;;;;;1.70;1.33;;;13.80;1.00;;;;;;8322981;28;20193;-79
2022/05/27 10:06:49;;;;;;;2.00;1.20;;;13.90;99.90;;;;;;8342298;28;20214;-79
2022/05/27 10:10:50;;;;;;;3.07;1.00;;;14.10;1.00;;;;;;8325978;28;20187;-77
2022/05/27 10:14:51;;;;;;;1.40;1.00;;;14.20;99.90;;;;;;8325795;28;20185;-80
2022/05/27 10:19:14;;;;;;;1.90;1.20;;;14.10;99.90;;;;;;8321948;28;20179;-77
2022/05/27 10:23:23;;;;;;;2.43;1.13;;;14.20;1.00;;;;;;8330833;28;20186;-81
2022/05/27 10:27:33;;;;;;;1.57;0.80;;;14.60;1.00;;;;;;8319997;28;20241;-77
2022/05/27 10:31:35;;;;;;;2.30;0.90;;;15.10;99.90;;;;;;8336867;28;20190;-76
2022/05/27 10:35:36;;;;;;;3.80;1.20;;;15.20;99.90;;;;;;8328691;28;20224;-78
2022/05/27 10:40:02;;;;;;;1.60;1.13;;;14.70;1.00;;;;;;8329269;28;20210;-78
2022/05/27 10:44:20;;;;;;;1.73;1.33;;;14.20;95.70;;;;;;8327690;28;20186;-81
2022/05/27 10:48:36;;;;;;;2.73;1.27;;;14.10;99.90;;;;;;8343602;28;20210;-78
2022/05/27 10:52:47;;;;;;;1.83;1.30;;;14.20;56.60;;;;;;8345510;28;20195;-78
2022/05/27 11:02:04;;;;;;;1.60;1.10;;;14.80;99.90;;;;;;8347654;28;20200;-77
2022/05/27 11:06:16;;;;;;;2.13;0.97;;;14.80;99.90;;;;;;8329240;28;20683;-77
2022/05/27 11:10:59;;;;;;;3.87;1.20;;;15.50;99.90;;;;;;8321972;28;20278;-77
2022/05/27 11:15:13;;;;;;;5.67;1.03;;;16.30;1.00;;;;;;8306494;28;20198;-76
2022/05/27 11:19:36;;;;;;;2.93;1.20;;;16.70;99.90;;;;;;8341157;28;20186;-81
2022/05/27 11:23:52;;;;;;;1.00;0.80;;;16.60;99.90;;;;;;8332743;28;20193;-76
2022/05/27 11:28:12;;;;;;;2.17;1.20;;;16.20;1.00;;;;;;8324422;28;20296;-78
2022/05/27 11:32:28;;;;;;;3.50;1.10;;;16.40;99.90;;;;;;8314866;28;20182;-76
2022/05/27 11:36:40;;;;;;;2.60;1.43;;;16.40;1.00;;;;;;8323886;28;20186;-77
2022/05/27 11:41:19;;;;;;;1.67;1.40;;;16.90;99.90;;;;;;8340262;28;20289;-76
2022/05/27 11:45:27;;;;;;;3.73;1.40;;;17.30;99.90;;;;;;8321492;28;20219;-82
2022/05/27 11:49:54;;;;;;;2.17;1.60;;;17.00;99.90;;;;;;8347383;28;20197;-77
2022/05/27 11:54:23;;;;;;;3.93;1.33;;;17.20;99.90;;;;;;8305570;28;20239;-79
2022/05/27 11:58:39;;;;;;;1.33;1.10;;;17.70;22.20;;;;;;8319047;28;20182;-77
2022/05/27 12:03:06;;;;;;;1.97;1.17;;;18.10;1.00;;;;;;8335776;28;20288;-78
2022/05/27 12:07:34;;;;;;;5.20;1.30;;;18.50;1.00;;;;;;8326501;28;20266;-78
2022/05/27 12:11:45;;;;;;;1.73;1.23;;;18.40;1.00;;;;;;8328427;28;20225;-77
2022/05/27 12:16:02;;;;;;;1.93;1.30;;;18.10;1.00;;;;;;8338749;28;20187;-79
2022/05/27 12:20:04;;;;;;;3.10;1.37;;;18.00;1.00;;;;;;8336121;28;20186;-77
2022/05/27 12:24:34;;;;;;;2.77;1.50;;;18.20;1.00;;;;;;8325273;28;20244;-77
2022/05/27 12:28:41;;;;;;;1.93;1.20;;;18.10;1.00;;;;;;8340786;28;20221;-77
2022/05/27 12:32:44;;;;;;;2.13;1.10;;;18.40;1.00;;;;;;8331147;28;20190;-76
2022/05/27 12:36:45;;;;;;;3.97;1.33;;;18.90;1.00;;;;;;8324301;28;20297;-77
2022/05/27 12:40:50;;;;;;;2.23;1.60;;;19.10;99.90;;;;;;8320564;28;20213;-79
2022/05/27 12:44:52;;;;;;;3.93;1.13;;;18.70;1.00;;;;;;8330678;28;20292;-76
2022/05/27 12:48:55;;;;;;;3.40;1.17;;;18.70;99.90;;;;;;8323839;28;20197;-79
2022/05/27 12:53:15;;;;;;;1.63;1.03;;;19.10;99.90;;;;;;8327103;28;20185;-79
2022/05/27 13:01:54;;;;;;;1.97;1.00;;;19.00;99.90;;;;;;8342562;28;20217;-80
2022/05/27 13:06:14;;;;;;;1.83;1.07;;;18.70;99.90;;;;;;8337632;28;20208;-78
2022/05/27 13:10:18;;;;;;;1.80;0.93;;;18.70;1.00;;;;;;8329736;28;20189;-77
2022/05/27 13:14:40;;;;;;;2.80;1.33;;;19.00;99.90;;;;;;8326824;28;20189;-77
2022/05/27 13:18:58;;;;;;;1.80;1.30;;;19.00;1.00;;;;;;8326966;28;20185;-78
2022/05/27 13:23:14;;;;;;;3.73;1.10;;;19.00;99.90;;;;;;8339634;28;20185;-78
2022/05/27 13:27:18;;;;;;;4.77;1.40;;;19.30;99.90;;;;;;8315657;28;20233;-77
2022/05/27 13:31:24;;;;;;;2.37;1.00;;;19.40;99.90;;;;;;8332941;28;20202;-77
2022/05/27 13:35:27;;;;;;;1.23;0.87;;;19.50;99.90;;;;;;8322404;28;20188;-80
2022/05/27 13:39:52;;;;;;;4.00;1.10;;;19.40;99.90;;;;;;8330587;28;20217;-77
2022/05/27 13:43:54;;;;;;;1.40;1.20;;;18.30;99.90;;;;;;8319832;28;20191;-76
2022/05/27 13:48:02;;;;;;;1.53;1.27;;;18.10;99.90;;;;;;8320664;28;20212;-76
2022/05/27 13:52:25;;;;;;;2.23;1.50;;;17.90;99.90;;;;;;8332360;28;20177;-81
2022/05/27 13:56:34;;;;;;;2.10;1.40;;;18.10;99.90;;;;;;8331128;28;20257;-78
2022/05/27 14:00:40;;;;;;;2.57;1.30;;;18.50;1.00;;;;;;8326294;28;20193;-76
2022/05/27 14:04:41;;;;;;;2.90;1.17;;;18.80;99.90;;;;;;8321161;28;20190;-75
2022/05/27 14:08:44;;;;;;;2.40;1.10;;;18.90;99.90;;;;;;8344282;28;20283;-75
2022/05/27 14:12:47;;;;;;;2.07;1.07;;;18.50;99.90;;;;;;8341227;28;20290;-77
2022/05/27 14:16:48;;;;;;;3.03;1.27;;;18.70;99.90;;;;;;8343535;28;20183;-76
2022/05/27 14:25:27;;;;;;;1.83;1.37;;;17.90;99.90;;;;;;8349867;28;20217;-80
2022/05/27 14:29:29;;;;;;;1.93;1.20;;;17.90;99.90;;;;;;8343854;28;20194;-80
2022/05/27 14:33:37;;;;;;;3.27;1.17;;;17.80;99.90;;;;;;8331455;28;20186;-75
2022/05/27 14:37:56;;;;;;;3.67;1.20;;;17.70;99.90;;;;;;8327557;28;20270;-77
2022/05/27 14:42:00;;;;;;;5.30;1.20;;;17.80;99.90;;;;;;8323033;28;20293;-76
2022/05/27 14:46:12;;;;;;;4.03;1.20;;;17.90;99.90;;;;;;8322863;28;20210;-75
2022/05/27 14:50:12;;;;;;;3.83;1.30;;;17.60;99.90;;;;;;8326866;28;20179;-77
2022/05/27 14:54:16;;;;;;;7.10;1.50;;;17.70;99.90;;;;;;8328963;28;20190;-75
2022/05/27 14:58:17;;;;;;;1.70;1.40;;;17.50;99.90;;;;;;8342288;28;20190;-75
2022/05/27 15:02:22;;;;;;;2.40;1.33;;;17.50;99.90;;;;;;8331388;28;20249;-79
2022/05/27 15:06:26;;;;;;;1.97;0.97;;;17.50;1.00;;;;;;8331777;28;20205;-77
2022/05/27 15:10:36;;;;;;;2.40;1.13;;;17.40;99.90;;;;;;8323780;28;20183;-78
2022/05/27 15:14:42;;;;;;;4.07;1.23;;;17.00;1.00;;;;;;8315665;28;20185;-76
2022/05/27 15:18:54;;;;;;;3.37;1.47;;;16.90;20.90;;;;;;8328349;28;20182;-78
2022/05/27 15:23:02;;;;;;;2.97;1.30;;;16.70;99.90;;;;;;8320523;28;20213;-82
2022/05/27 15:36:14;;;;;;;1.47;0.70;;;17.20;1.00;;;;;;8329302;28;20197;-75
2022/05/27 15:40:15;;;;;;;3.27;0.87;;;17.10;1.00;;;;;;8318128;28;20248;-76
2022/05/27 15:44:16;;;;;;;1.47;1.00;;;17.10;1.00;;;;;;8318576;28;20182;-79
2022/05/27 15:48:18;;;;;;;1.20;0.90;;;17.10;1.00;;;;;;8329468;28;20532;-78
2022/05/27 15:52:19;;;;;;;1.27;0.80;;;17.20;1.00;;;;;;8327130;28;20169;-75
2022/05/27 15:56:20;;;;;;;3.90;0.80;;;17.10;1.00;;;;;;8324037;28;20205;-80
2022/05/27 16:00:21;;;;;;;2.03;0.97;;;17.10;1.00;;;;;;8334643;28;20182;-80
2022/05/27 16:04:21;;;;;;;2.83;0.90;;;17.10;3.40;;;;;;8331101;28;20179;-76
2022/05/27 16:08:22;;;;;;;3.67;0.90;;;17.10;1.00;;;;;;8321727;28;20218;-76
2022/05/27 16:12:23;;;;;;;2.30;0.90;;;17.10;1.00;;;;;;8320968;28;20194;-80
2022/05/27 16:20:44;;;;;;;2.13;0.80;;;17.20;1.00;;;;;;8335926;28;20197;-80
2022/05/27 16:24:45;;;;;;;2.63;1.03;;;17.30;99.90;;;;;;8317730;28;20219;-75
2022/05/27 16:28:46;;;;;;;1.70;1.03;;;17.10;1.00;;;;;;8325205;28;20214;-78
2022/05/27 16:32:47;;;;;;;2.77;1.03;;;16.80;1.00;;;;;;8323602;28;20189;-77
2022/05/27 16:36:52;;;;;;;3.20;1.20;;;16.90;1.00;;;;;;8321035;28;20186;-77
2022/05/27 16:40:53;;;;;;;3.23;0.90;;;17.00;1.00;;;;;;8320199;28;20213;-79
2022/05/27 16:44:54;;;;;;;1.73;0.97;;;16.70;1.00;;;;;;8344462;28;20214;-77
2022/05/27 16:48:56;;;;;;;3.53;1.00;;;16.60;1.00;;;;;;8339773;28;20185;-78
2022/05/27 16:52:57;;;;;;;3.30;1.20;;;16.60;1.00;;;;;;8328782;28;20192;-78
2022/05/27 16:57:02;;;;;;;4.67;1.33;;;16.70;1.00;;;;;;8325933;28;20224;-76
2022/05/27 17:01:03;;;;;;;3.00;1.60;;;16.70;1.00;;;;;;8326212;28;20178;-77
2022/05/27 17:05:05;;;;;;;3.47;1.20;;;16.80;1.00;;;;;;8324486;28;20239;-76
2022/05/27 17:09:06;;;;;;;3.83;1.23;;;16.80;99.90;;;;;;8325610;28;20266;-78
2022/05/27 17:13:07;;;;;;;2.80;1.10;;;16.80;99.90;;;;;;8320307;28;20204;-80
2022/05/27 17:17:08;;;;;;;3.53;0.90;;;16.70;99.90;;;;;;8321370;28;20196;-75
2022/05/27 17:21:09;;;;;;;3.00;1.10;;;16.30;99.90;;;;;;8338489;28;20186;-80
2022/05/27 17:25:12;;;;;;;2.27;1.10;;;16.00;99.90;;;;;;8332383;28;20308;-76
2022/05/27 17:29:13;;;;;;;3.30;0.97;;;16.50;99.90;;;;;;8346735;28;20222;-81
2022/05/27 17:33:14;;;;;;;3.43;1.37;;;17.50;99.90;;;;;;8327912;28;20187;-76
2022/05/27 17:37:15;;;;;;;4.40;1.40;;;18.30;31.80;;;;;;8336545;28;20246;-80
2022/05/27 17:41:16;;;;;;;2.30;0.83;;;19.00;1.00;;;;;;8330092;28;20203;-77
2022/05/27 17:45:17;;;;;;;4.97;0.87;;;19.30;1.00;;;;;;8325849;28;20213;-77
2022/05/27 17:53:38;;;;;;;2.10;0.60;;;19.90;1.00;;;;;;8344687;28;20201;-78
2022/05/27 17:57:39;;;;;;;1.10;0.60;;;19.10;1.00;;;;;;8324335;28;20186;-81
2022/05/27 18:01:41;;;;;;;4.27;0.90;;;18.30;1.00;;;;;;8336485;28;20193;-77
2022/05/27 18:05:42;;;;;;;4.87;1.00;;;18.20;1.00;;;;;;8327756;28;20202;-76
2022/05/27 18:09:46;;;;;;;2.13;0.87;;;18.70;1.00;;;;;;8327112;28;20305;-76
2022/05/27 18:13:48;;;;;;;5.10;1.30;;;18.30;1.00;;;;;;8327388;28;20270;-76
2022/05/27 18:17:50;;;;;;;1.90;0.90;;;18.00;1.00;;;;;;8337366;28;20186;-78
2022/05/27 18:21:51;;;;;;;6.30;0.80;;;17.70;1.00;;;;;;8323302;28;20194;-78
2022/05/27 18:25:52;;;;;;;2.33;0.80;;;17.30;1.00;;;;;;8336340;28;20215;-76
2022/05/27 18:29:53;;;;;;;4.97;0.80;;;17.10;1.00;;;;;;8323358;28;20198;-77
2022/05/27 18:33:54;;;;;;;3.73;0.90;;;16.70;1.00;;;;;;8340609;28;20194;-78
2022/05/27 18:37:56;;;;;;;2.20;0.93;;;16.10;1.00;;;;;;8323737;28;20217;-80
2022/05/27 18:41:57;;;;;;;2.80;1.20;;;15.50;1.00;;;;;;8346054;28;20210;-80
2022/05/27 18:46:01;;;;;;;7.17;1.10;;;14.90;2.90;;;;;;8322843;28;20217;-75
2022/05/27 18:50:03;;;;;;;3.07;0.80;;;14.50;25.90;;;;;;8345904;28;20187;-80
2022/05/27 18:54:04;;;;;;;3.57;1.10;;;14.20;58.00;;;;;;8346191;28;20257;-78
2022/05/27 18:58:07;;;;;;;3.47;1.20;;;13.90;84.60;;;;;;8345598;28;20187;-76
2022/05/27 19:02:11;;;;;;;2.43;0.90;;;13.70;99.90;;;;;;8334325;28;20189;-80
2022/05/27 19:06:13;;;;;;;3.70;1.10;;;13.50;99.90;;;;;;8327573;28;20243;-80
2022/05/27 19:10:17;;;;;;;1.93;0.87;;;13.30;99.90;;;;;;8327823;28;20210;-79
2022/05/27 19:14:19;;;;;;;2.60;1.67;;;13.00;99.90;;;;;;8337324;28;20276;-76
2022/05/27 19:18:20;;;;;;;1.97;1.20;;;12.70;99.90;;;;;;8348992;28;20537;-81
2022/05/27 19:22:22;;;;;;;2.93;1.03;;;12.40;99.90;;;;;;8326853;28;20190;-76
2022/05/27 19:26:28;;;;;;;8.17;4.13;;;12.00;99.90;;;;;;8321874;28;20236;-79
2022/05/27 19:30:29;;;;;;;8.83;3.63;;;11.90;1.00;;;;;;8320552;28;20215;-81
2022/05/27 19:34:30;;;;;;;6.30;2.03;;;11.70;1.00;;;;;;8337319;28;20374;-79
2022/05/27 19:38:35;;;;;;;3.33;2.00;;;11.70;1.00;;;;;;8321595;28;20224;-78
2022/05/27 19:42:36;;;;;;;3.93;1.80;;;11.50;1.00;;;;;;8321378;28;20197;-79
2022/05/27 19:46:38;;;;;;;4.40;1.90;;;11.30;1.00;;;;;;8331040;28;20265;-78
2022/05/27 19:50:40;;;;;;;6.70;1.53;;;11.20;1.00;;;;;;8325779;28;20245;-79
2022/05/27 19:54:46;;;;;;;4.70;1.70;;;11.20;1.00;;;;;;8325529;28;20191;-78
2022/05/27 20:07:36;;;;;;;3.30;1.37;;;10.80;99.90;;;;;;8339386;28;20354;-79
2022/05/27 20:11:39;;;;;;;3.17;1.37;;;10.60;99.90;;;;;;8324690;28;20188;-78
2022/05/27 20:15:39;;;;;;;1.53;1.03;;;10.40;1.00;;;;;;8338700;28;20249;-78
2022/05/27 20:19:40;;;;;;;1.53;1.10;;;10.20;1.00;;;;;;8339715;28;20264;-78
2022/05/27 20:23:41;;;;;;;5.77;1.60;;;10.00;83.50;;;;;;8326486;28;20198;-78
2022/05/27 20:27:43;;;;;;;4.27;1.47;;;9.80;99.90;;;;;;8327173;28;20209;-80
2022/05/27 20:31:45;;;;;;;3.87;1.47;;;9.70;99.90;;;;;;8326129;28;20274;-79
2022/05/27 20:40:05;;;;;;;1.43;1.00;;;9.40;1.00;;;;;;8336367;28;20323;-79
2022/05/27 20:44:07;;;;;;;2.13;1.30;;;9.30;1.00;;;;;;8318317;28;20201;-80
2022/05/27 20:48:08;;;;;;;2.40;1.53;;;9.10;99.90;;;;;;8322527;28;20248;-80
2022/05/27 20:52:10;;;;;;;3.23;1.20;;;9.10;99.90;;;;;;8326694;28;20178;-80
2022/05/27 20:56:15;;;;;;;1.63;1.10;;;9.00;99.90;;;;;;8306093;28;20190;-79
2022/05/27 21:00:16;;;;;;;1.87;1.10;;;9.00;1.00;;;;;;8331540;28;20255;-79
2022/05/27 21:04:27;;;;;;;1.63;1.00;;;8.90;1.00;;;;;;8331337;28;20257;-78
2022/05/27 21:12:47;;;;;;;2.57;1.50;;;8.60;99.90;;;;;;8349238;28;20205;-79
2022/05/27 21:16:49;;;;;;;3.10;1.50;;;8.50;99.90;;;;;;8334174;28;20232;-78
2022/05/27 21:20:51;;;;;;;3.93;1.70;;;8.50;95.90;;;;;;8326111;28;20194;-79
2022/05/27 21:24:52;;;;;;;6.53;1.70;;;8.60;1.00;;;;;;8316694;28;20197;-79
2022/05/27 21:28:53;;;;;;;4.63;1.80;;;8.90;99.90;;;;;;8309824;28;20218;-80
2022/05/27 21:32:54;;;;;;;8.13;1.37;;;9.00;1.00;;;;;;8327564;28;20207;-79
2022/05/27 21:36:55;;;;;;;6.60;1.87;;;9.00;99.90;;;;;;8326742;28;20193;-78
2022/05/27 21:40:56;;;;;;;3.67;1.40;;;9.10;68.20;;;;;;8324433;28;20208;-78
2022/05/27 21:44:57;;;;;;;4.63;1.50;;;9.10;1.00;;;;;;8336120;28;20194;-78
2022/05/27 21:49:00;;;;;;;2.13;1.30;;;9.00;99.90;;;;;;8326393;28;20213;-79
2022/05/27 21:53:01;;;;;;;5.20;1.73;;;8.90;99.90;;;;;;8349932;28;20186;-79
2022/05/27 21:57:03;;;;;;;3.97;1.50;;;8.90;99.90;;;;;;8330388;28;20185;-80
2022/05/27 22:01:05;;;;;;;5.33;1.60;;;8.90;99.90;;;;;;8330892;28;20190;-79
2022/05/27 22:05:07;;;;;;;6.50;1.43;;;8.90;99.90;;;;;;8331823;28;20193;-78
2022/05/27 22:09:08;;;;;;;5.27;1.40;;;8.90;99.90;;;;;;8332665;28;20247;-79
2022/05/27 22:13:08;;;;;;;6.53;1.47;;;8.90;99.90;;;;;;8336088;28;20182;-79
2022/05/27 22:17:09;;;;;;;3.47;1.27;;;8.80;99.90;;;;;;8341480;28;20186;-79
2022/05/27 22:21:10;;;;;;;3.03;1.17;;;8.70;99.90;;;;;;8328400;28;20324;-79
2022/05/27 22:25:13;;;;;;;3.17;1.10;;;8.60;99.90;;;;;;8323084;28;20194;-79
2022/05/27 22:29:14;;;;;;;3.27;1.57;;;8.60;1.00;;;;;;8328488;28;20204;-79
2022/05/27 22:33:16;;;;;;;6.10;1.53;;;8.60;1.00;;;;;;8322742;28;20183;-79